sensor_id;sensor_type;location;lat;lon;timestamp;P1;durP1;ratioP1;P2;durP2;ratioP2
73084;SDS011;62974;49.460;10.892;2023-06-01T00:00:01;4.45;;;1.25;;
73084;SDS011;62974;49.460;10.892;2023-06-01T00:02:33;3.47;;;1.42;;
73084;SDS011;62974;49.460;10.892;2023-06-01T00:05:02;3.55;;;1.35;;
73084;SDS011;62974;49.460;10.892;2023-06-01T00:07:30;2.55;;;1.50;;
73084;SDS011;62974;49.460;10.892;2023-06-01T00:09:59;2.28;;;1.30;;
73084;SDS011;62974;49.460;10.892;2023-06-01T00:12:26;3.47;;;1.52;;
73084;SDS011;62974;49.460;10.892;2023-06-01T00:14:54;2.80;;;1.60;;
73084;SDS011;62974;49.460;10.892;2023-06-01T00:17:22;2.58;;;1.50;;
73084;SDS011;62974;49.460;10.892;2023-06-01T00:19:50;1.90;;;1.50;;
73084;SDS011;62974;49.460;10.892;2023-06-01T00:22:20;3.75;;;1.40;;
73084;SDS011;62974;49.460;10.892;2023-06-01T00:24:50;4.50;;;1.70;;
73084;SDS011;62974;49.460;10.892;2023-06-01T00:27:17;3.20;;;1.40;;
73084;SDS011;62974;49.460;10.892;2023-06-01T00:29:45;3.13;;;1.60;;
73084;SDS011;62974;49.460;10.892;2023-06-01T00:32:12;2.67;;;1.73;;
73084;SDS011;62974;49.460;10.892;2023-06-01T00:34:40;1.92;;;1.48;;
73084;SDS011;62974;49.460;10.892;2023-06-01T00:37:07;4.63;;;2.03;;
73084;SDS011;62974;49.460;10.892;2023-06-01T00:39:36;1.80;;;1.38;;
73084;SDS011;62974;49.460;10.892;2023-06-01T00:42:04;2.78;;;1.70;;
73084;SDS011;62974;49.460;10.892;2023-06-01T00:44:32;2.38;;;1.50;;
73084;SDS011;62974;49.460;10.892;2023-06-01T00:47:00;4.78;;;1.50;;
73084;SDS011;62974;49.460;10.892;2023-06-01T00:49:28;4.78;;;1.67;;
73084;SDS011;62974;49.460;10.892;2023-06-01T00:51:55;2.95;;;1.63;;
73084;SDS011;62974;49.460;10.892;2023-06-01T00:54:23;2.35;;;1.58;;
73084;SDS011;62974;49.460;10.892;2023-06-01T00:56:52;2.90;;;1.52;;
73084;SDS011;62974;49.460;10.892;2023-06-01T00:59:20;4.00;;;1.60;;
73084;SDS011;62974;49.460;10.892;2023-06-01T01:01:48;2.85;;;1.42;;
73084;SDS011;62974;49.460;10.892;2023-06-01T01:04:15;3.05;;;1.65;;
73084;SDS011;62974;49.460;10.892;2023-06-01T01:06:53;4.18;;;1.50;;
73084;SDS011;62974;49.460;10.892;2023-06-01T01:09:28;3.05;;;1.50;;
73084;SDS011;62974;49.460;10.892;2023-06-01T01:12:05;3.40;;;1.70;;
73084;SDS011;62974;49.460;10.892;2023-06-01T01:14:38;3.38;;;1.58;;
73084;SDS011;62974;49.460;10.892;2023-06-01T01:17:13;3.78;;;2.05;;
73084;SDS011;62974;49.460;10.892;2023-06-01T01:19:53;2.90;;;1.50;;
73084;SDS011;62974;49.460;10.892;2023-06-01T01:22:31;3.20;;;1.60;;
73084;SDS011;62974;49.460;10.892;2023-06-01T01:25:20;2.28;;;1.50;;
73084;SDS011;62974;49.460;10.892;2023-06-01T01:28:02;2.67;;;1.85;;
73084;SDS011;62974;49.460;10.892;2023-06-01T01:30:39;5.00;;;1.67;;
73084;SDS011;62974;49.460;10.892;2023-06-01T01:33:09;3.83;;;2.20;;
73084;SDS011;62974;49.460;10.892;2023-06-01T01:35:37;4.25;;;1.73;;
73084;SDS011;62974;49.460;10.892;2023-06-01T01:38:06;4.50;;;1.65;;
73084;SDS011;62974;49.460;10.892;2023-06-01T01:40:33;3.05;;;2.15;;
73084;SDS011;62974;49.460;10.892;2023-06-01T01:43:01;3.13;;;1.67;;
73084;SDS011;62974;49.460;10.892;2023-06-01T01:47:58;2.50;;;1.60;;
73084;SDS011;62974;49.460;10.892;2023-06-01T01:50:34;3.03;;;1.60;;
73084;SDS011;62974;49.460;10.892;2023-06-01T01:53:05;5.65;;;1.80;;
73084;SDS011;62974;49.460;10.892;2023-06-01T01:55:34;3.08;;;1.52;;
73084;SDS011;62974;49.460;10.892;2023-06-01T01:58:03;2.70;;;1.70;;
73084;SDS011;62974;49.460;10.892;2023-06-01T02:00:32;4.35;;;2.10;;
73084;SDS011;62974;49.460;10.892;2023-06-01T02:03:02;3.17;;;1.60;;
73084;SDS011;62974;49.460;10.892;2023-06-01T02:05:30;2.17;;;1.40;;
73084;SDS011;62974;49.460;10.892;2023-06-01T02:07:57;5.30;;;1.88;;
73084;SDS011;62974;49.460;10.892;2023-06-01T02:10:25;3.85;;;1.70;;
73084;SDS011;62974;49.460;10.892;2023-06-01T02:12:52;2.45;;;1.40;;
73084;SDS011;62974;49.460;10.892;2023-06-01T02:15:20;4.03;;;1.73;;
73084;SDS011;62974;49.460;10.892;2023-06-01T02:17:48;2.05;;;1.50;;
73084;SDS011;62974;49.460;10.892;2023-06-01T02:22:45;4.50;;;1.73;;
73084;SDS011;62974;49.460;10.892;2023-06-01T02:25:12;3.63;;;1.70;;
73084;SDS011;62974;49.460;10.892;2023-06-01T02:27:40;2.92;;;1.95;;
73084;SDS011;62974;49.460;10.892;2023-06-01T02:30:08;3.03;;;1.60;;
73084;SDS011;62974;49.460;10.892;2023-06-01T02:32:36;3.95;;;1.70;;
73084;SDS011;62974;49.460;10.892;2023-06-01T02:35:04;4.15;;;1.90;;
73084;SDS011;62974;49.460;10.892;2023-06-01T02:37:34;3.90;;;1.65;;
73084;SDS011;62974;49.460;10.892;2023-06-01T02:40:02;4.07;;;1.60;;
73084;SDS011;62974;49.460;10.892;2023-06-01T02:42:30;3.67;;;1.70;;
73084;SDS011;62974;49.460;10.892;2023-06-01T02:44:57;3.53;;;1.83;;
73084;SDS011;62974;49.460;10.892;2023-06-01T02:47:25;2.58;;;1.35;;
73084;SDS011;62974;49.460;10.892;2023-06-01T02:49:52;2.67;;;1.83;;
73084;SDS011;62974;49.460;10.892;2023-06-01T02:52:20;3.10;;;1.70;;
73084;SDS011;62974;49.460;10.892;2023-06-01T02:54:49;5.32;;;1.55;;
73084;SDS011;62974;49.460;10.892;2023-06-01T02:57:16;3.28;;;2.00;;
73084;SDS011;62974;49.460;10.892;2023-06-01T02:59:44;2.83;;;1.73;;
73084;SDS011;62974;49.460;10.892;2023-06-01T03:02:12;3.42;;;2.10;;
73084;SDS011;62974;49.460;10.892;2023-06-01T03:04:39;4.68;;;1.85;;
73084;SDS011;62974;49.460;10.892;2023-06-01T03:07:07;3.15;;;1.80;;
73084;SDS011;62974;49.460;10.892;2023-06-01T03:09:34;2.85;;;1.50;;
73084;SDS011;62974;49.460;10.892;2023-06-01T03:12:03;3.95;;;1.65;;
73084;SDS011;62974;49.460;10.892;2023-06-01T03:14:32;4.70;;;2.08;;
73084;SDS011;62974;49.460;10.892;2023-06-01T03:16:59;3.65;;;2.15;;
73084;SDS011;62974;49.460;10.892;2023-06-01T03:19:27;3.38;;;2.00;;
73084;SDS011;62974;49.460;10.892;2023-06-01T03:21:55;3.45;;;1.88;;
73084;SDS011;62974;49.460;10.892;2023-06-01T03:24:22;2.85;;;1.70;;
73084;SDS011;62974;49.460;10.892;2023-06-01T03:26:52;4.05;;;1.80;;
73084;SDS011;62974;49.460;10.892;2023-06-01T03:29:21;3.70;;;2.25;;
73084;SDS011;62974;49.460;10.892;2023-06-01T03:31:48;3.10;;;1.85;;
73084;SDS011;62974;49.460;10.892;2023-06-01T03:34:17;3.13;;;1.95;;
73084;SDS011;62974;49.460;10.892;2023-06-01T03:36:45;3.70;;;1.80;;
73084;SDS011;62974;49.460;10.892;2023-06-01T03:39:14;4.05;;;2.38;;
73084;SDS011;62974;49.460;10.892;2023-06-01T03:41:42;4.03;;;1.95;;
73084;SDS011;62974;49.460;10.892;2023-06-01T03:44:10;2.58;;;1.70;;
73084;SDS011;62974;49.460;10.892;2023-06-01T03:46:39;4.55;;;2.20;;
73084;SDS011;62974;49.460;10.892;2023-06-01T03:49:07;3.60;;;2.05;;
73084;SDS011;62974;49.460;10.892;2023-06-01T03:51:35;3.47;;;2.00;;
73084;SDS011;62974;49.460;10.892;2023-06-01T03:54:03;2.97;;;1.90;;
73084;SDS011;62974;49.460;10.892;2023-06-01T03:56:30;3.38;;;1.58;;
73084;SDS011;62974;49.460;10.892;2023-06-01T03:58:58;3.30;;;1.60;;
73084;SDS011;62974;49.460;10.892;2023-06-01T04:03:56;5.22;;;1.92;;
73084;SDS011;62974;49.460;10.892;2023-06-01T04:06:24;3.75;;;1.88;;
73084;SDS011;62974;49.460;10.892;2023-06-01T04:08:55;4.28;;;1.85;;
73084;SDS011;62974;49.460;10.892;2023-06-01T04:11:24;2.63;;;1.63;;
73084;SDS011;62974;49.460;10.892;2023-06-01T04:13:52;3.30;;;1.88;;
73084;SDS011;62974;49.460;10.892;2023-06-01T04:16:20;4.00;;;1.80;;
73084;SDS011;62974;49.460;10.892;2023-06-01T04:18:47;2.67;;;2.03;;
73084;SDS011;62974;49.460;10.892;2023-06-01T04:21:18;3.13;;;2.30;;
73084;SDS011;62974;49.460;10.892;2023-06-01T04:23:47;2.75;;;2.00;;
73084;SDS011;62974;49.460;10.892;2023-06-01T04:26:15;3.40;;;2.20;;
73084;SDS011;62974;49.460;10.892;2023-06-01T04:28:44;3.33;;;2.45;;
73084;SDS011;62974;49.460;10.892;2023-06-01T04:31:12;3.67;;;2.00;;
73084;SDS011;62974;49.460;10.892;2023-06-01T04:33:43;3.40;;;2.40;;
73084;SDS011;62974;49.460;10.892;2023-06-01T04:36:11;7.88;;;2.33;;
73084;SDS011;62974;49.460;10.892;2023-06-01T04:38:41;3.85;;;2.38;;
73084;SDS011;62974;49.460;10.892;2023-06-01T04:41:09;3.30;;;2.03;;
73084;SDS011;62974;49.460;10.892;2023-06-01T04:43:36;4.32;;;2.28;;
73084;SDS011;62974;49.460;10.892;2023-06-01T04:46:05;6.95;;;2.30;;
73084;SDS011;62974;49.460;10.892;2023-06-01T04:48:34;4.47;;;2.17;;
73084;SDS011;62974;49.460;10.892;2023-06-01T04:53:30;4.70;;;2.50;;
73084;SDS011;62974;49.460;10.892;2023-06-01T04:55:59;4.13;;;2.15;;
73084;SDS011;62974;49.460;10.892;2023-06-01T04:58:26;3.13;;;2.25;;
73084;SDS011;62974;49.460;10.892;2023-06-01T05:00:54;4.28;;;2.10;;
73084;SDS011;62974;49.460;10.892;2023-06-01T05:03:22;3.83;;;2.30;;
73084;SDS011;62974;49.460;10.892;2023-06-01T05:05:49;6.22;;;2.03;;
73084;SDS011;62974;49.460;10.892;2023-06-01T05:08:17;6.07;;;2.17;;
73084;SDS011;62974;49.460;10.892;2023-06-01T05:10:44;2.80;;;1.88;;
73084;SDS011;62974;49.460;10.892;2023-06-01T05:13:13;4.88;;;2.00;;
73084;SDS011;62974;49.460;10.892;2023-06-01T05:15:41;4.40;;;2.28;;
73084;SDS011;62974;49.460;10.892;2023-06-01T05:18:08;4.78;;;2.33;;
73084;SDS011;62974;49.460;10.892;2023-06-01T05:20:36;5.88;;;2.00;;
73084;SDS011;62974;49.460;10.892;2023-06-01T05:23:04;6.10;;;2.25;;
73084;SDS011;62974;49.460;10.892;2023-06-01T05:25:32;3.60;;;2.15;;
73084;SDS011;62974;49.460;10.892;2023-06-01T05:27:59;6.22;;;2.33;;
73084;SDS011;62974;49.460;10.892;2023-06-01T05:30:28;4.65;;;2.25;;
73084;SDS011;62974;49.460;10.892;2023-06-01T05:32:56;4.93;;;1.98;;
73084;SDS011;62974;49.460;10.892;2023-06-01T05:35:23;3.45;;;1.83;;
73084;SDS011;62974;49.460;10.892;2023-06-01T05:37:51;4.60;;;2.35;;
73084;SDS011;62974;49.460;10.892;2023-06-01T05:40:19;5.43;;;2.28;;
73084;SDS011;62974;49.460;10.892;2023-06-01T05:42:47;3.83;;;2.03;;
73084;SDS011;62974;49.460;10.892;2023-06-01T05:45:14;4.47;;;2.22;;
73084;SDS011;62974;49.460;10.892;2023-06-01T05:47:43;5.60;;;2.10;;
73084;SDS011;62974;49.460;10.892;2023-06-01T05:50:11;4.28;;;2.30;;
73084;SDS011;62974;49.460;10.892;2023-06-01T05:52:39;4.50;;;1.90;;
73084;SDS011;62974;49.460;10.892;2023-06-01T05:55:08;4.35;;;2.30;;
73084;SDS011;62974;49.460;10.892;2023-06-01T05:57:36;5.30;;;2.13;;
73084;SDS011;62974;49.460;10.892;2023-06-01T06:00:04;2.58;;;1.80;;
73084;SDS011;62974;49.460;10.892;2023-06-01T06:02:36;3.70;;;1.98;;
73084;SDS011;62974;49.460;10.892;2023-06-01T06:05:06;3.40;;;2.20;;
73084;SDS011;62974;49.460;10.892;2023-06-01T06:07:34;5.68;;;2.10;;
73084;SDS011;62974;49.460;10.892;2023-06-01T06:10:03;3.47;;;1.80;;
73084;SDS011;62974;49.460;10.892;2023-06-01T06:14:58;2.70;;;1.52;;
73084;SDS011;62974;49.460;10.892;2023-06-01T06:17:26;6.30;;;1.98;;
73084;SDS011;62974;49.460;10.892;2023-06-01T06:19:53;3.35;;;2.00;;
73084;SDS011;62974;49.460;10.892;2023-06-01T06:22:22;3.42;;;1.65;;
73084;SDS011;62974;49.460;10.892;2023-06-01T06:24:50;2.40;;;1.50;;
73084;SDS011;62974;49.460;10.892;2023-06-01T06:27:17;5.43;;;1.50;;
73084;SDS011;62974;49.460;10.892;2023-06-01T06:29:45;2.08;;;1.33;;
73084;SDS011;62974;49.460;10.892;2023-06-01T06:32:12;4.15;;;1.52;;
73084;SDS011;62974;49.460;10.892;2023-06-01T06:34:40;2.58;;;1.67;;
73084;SDS011;62974;49.460;10.892;2023-06-01T06:37:08;3.65;;;1.67;;
73084;SDS011;62974;49.460;10.892;2023-06-01T06:39:38;3.42;;;1.88;;
73084;SDS011;62974;49.460;10.892;2023-06-01T06:42:06;3.28;;;1.52;;
73084;SDS011;62974;49.460;10.892;2023-06-01T06:44:34;2.47;;;1.48;;
73084;SDS011;62974;49.460;10.892;2023-06-01T06:47:01;3.80;;;1.80;;
73084;SDS011;62974;49.460;10.892;2023-06-01T06:49:29;3.92;;;1.70;;
73084;SDS011;62974;49.460;10.892;2023-06-01T06:51:57;6.20;;;1.70;;
73084;SDS011;62974;49.460;10.892;2023-06-01T06:54:24;3.55;;;1.80;;
73084;SDS011;62974;49.460;10.892;2023-06-01T06:56:53;4.00;;;1.40;;
73084;SDS011;62974;49.460;10.892;2023-06-01T06:59:21;3.20;;;1.52;;
73084;SDS011;62974;49.460;10.892;2023-06-01T07:01:48;5.45;;;1.85;;
73084;SDS011;62974;49.460;10.892;2023-06-01T07:04:16;3.63;;;1.98;;
73084;SDS011;62974;49.460;10.892;2023-06-01T07:06:44;3.25;;;1.60;;
73084;SDS011;62974;49.460;10.892;2023-06-01T07:09:11;6.22;;;1.73;;
73084;SDS011;62974;49.460;10.892;2023-06-01T07:11:40;4.40;;;1.85;;
73084;SDS011;62974;49.460;10.892;2023-06-01T07:14:10;4.07;;;1.70;;
73084;SDS011;62974;49.460;10.892;2023-06-01T07:16:38;3.15;;;1.63;;
73084;SDS011;62974;49.460;10.892;2023-06-01T07:19:06;3.10;;;1.60;;
73084;SDS011;62974;49.460;10.892;2023-06-01T07:21:34;3.58;;;1.95;;
73084;SDS011;62974;49.460;10.892;2023-06-01T07:24:02;3.10;;;1.52;;
73084;SDS011;62974;49.460;10.892;2023-06-01T07:26:31;2.97;;;1.67;;
73084;SDS011;62974;49.460;10.892;2023-06-01T07:28:58;4.03;;;1.63;;
73084;SDS011;62974;49.460;10.892;2023-06-01T07:31:27;6.18;;;2.25;;
73084;SDS011;62974;49.460;10.892;2023-06-01T07:33:55;2.85;;;1.70;;
73084;SDS011;62974;49.460;10.892;2023-06-01T07:36:23;3.80;;;1.50;;
73084;SDS011;62974;49.460;10.892;2023-06-01T07:38:50;4.22;;;1.38;;
73084;SDS011;62974;49.460;10.892;2023-06-01T07:41:18;1.73;;;1.30;;
73084;SDS011;62974;49.460;10.892;2023-06-01T07:46:13;4.03;;;1.75;;
73084;SDS011;62974;49.460;10.892;2023-06-01T07:48:44;3.70;;;1.85;;
73084;SDS011;62974;49.460;10.892;2023-06-01T07:51:12;3.33;;;1.48;;
73084;SDS011;62974;49.460;10.892;2023-06-01T07:53:40;3.88;;;1.45;;
73084;SDS011;62974;49.460;10.892;2023-06-01T07:56:07;4.45;;;1.30;;
73084;SDS011;62974;49.460;10.892;2023-06-01T07:58:35;3.42;;;1.48;;
73084;SDS011;62974;49.460;10.892;2023-06-01T08:01:04;3.17;;;1.60;;
73084;SDS011;62974;49.460;10.892;2023-06-01T08:03:32;4.20;;;1.20;;
73084;SDS011;62974;49.460;10.892;2023-06-01T08:06:02;3.47;;;1.35;;
73084;SDS011;62974;49.460;10.892;2023-06-01T08:08:32;3.47;;;1.23;;
73084;SDS011;62974;49.460;10.892;2023-06-01T08:11:02;2.88;;;1.48;;
73084;SDS011;62974;49.460;10.892;2023-06-01T08:13:31;3.00;;;1.73;;
73084;SDS011;62974;49.460;10.892;2023-06-01T08:16:02;4.40;;;1.20;;
73084;SDS011;62974;49.460;10.892;2023-06-01T08:18:31;4.10;;;1.40;;
73084;SDS011;62974;49.460;10.892;2023-06-01T08:23:28;4.38;;;1.40;;
73084;SDS011;62974;49.460;10.892;2023-06-01T08:25:56;3.47;;;1.92;;
73084;SDS011;62974;49.460;10.892;2023-06-01T08:28:24;3.72;;;1.70;;
73084;SDS011;62974;49.460;10.892;2023-06-01T08:30:51;4.38;;;1.60;;
73084;SDS011;62974;49.460;10.892;2023-06-01T08:33:19;3.67;;;1.77;;
73084;SDS011;62974;49.460;10.892;2023-06-01T08:35:46;2.97;;;1.35;;
73084;SDS011;62974;49.460;10.892;2023-06-01T08:38:14;2.90;;;1.50;;
73084;SDS011;62974;49.460;10.892;2023-06-01T08:40:43;4.47;;;1.45;;
73084;SDS011;62974;49.460;10.892;2023-06-01T08:43:12;4.22;;;1.63;;
73084;SDS011;62974;49.460;10.892;2023-06-01T08:45:44;5.20;;;1.80;;
73084;SDS011;62974;49.460;10.892;2023-06-01T08:48:15;3.38;;;1.38;;
73084;SDS011;62974;49.460;10.892;2023-06-01T08:50:47;3.85;;;2.28;;
73084;SDS011;62974;49.460;10.892;2023-06-01T08:53:17;3.88;;;1.65;;
73084;SDS011;62974;49.460;10.892;2023-06-01T08:55:51;3.35;;;1.40;;
73084;SDS011;62974;49.460;10.892;2023-06-01T08:58:19;3.20;;;1.80;;
73084;SDS011;62974;49.460;10.892;2023-06-01T09:00:47;4.43;;;1.42;;
73084;SDS011;62974;49.460;10.892;2023-06-01T09:03:14;2.13;;;1.30;;
73084;SDS011;62974;49.460;10.892;2023-06-01T09:05:42;2.83;;;1.38;;
73084;SDS011;62974;49.460;10.892;2023-06-01T09:08:10;2.58;;;1.50;;
73084;SDS011;62974;49.460;10.892;2023-06-01T09:10:37;3.33;;;1.30;;
73084;SDS011;62974;49.460;10.892;2023-06-01T09:13:07;2.25;;;1.35;;
73084;SDS011;62974;49.460;10.892;2023-06-01T09:15:35;3.13;;;1.52;;
73084;SDS011;62974;49.460;10.892;2023-06-01T09:18:16;5.07;;;1.40;;
73084;SDS011;62974;49.460;10.892;2023-06-01T09:20:44;3.13;;;1.52;;
73084;SDS011;62974;49.460;10.892;2023-06-01T09:23:12;2.53;;;1.33;;
73084;SDS011;62974;49.460;10.892;2023-06-01T09:26:03;4.18;;;1.77;;
73084;SDS011;62974;49.460;10.892;2023-06-01T09:28:37;4.25;;;1.50;;
73084;SDS011;62974;49.460;10.892;2023-06-01T09:31:34;4.20;;;1.30;;
73084;SDS011;62974;49.460;10.892;2023-06-01T09:34:03;3.05;;;1.50;;
73084;SDS011;62974;49.460;10.892;2023-06-01T09:36:31;3.42;;;1.70;;
73084;SDS011;62974;49.460;10.892;2023-06-01T09:41:27;3.88;;;1.70;;
73084;SDS011;62974;49.460;10.892;2023-06-01T09:44:12;3.47;;;1.30;;
73084;SDS011;62974;49.460;10.892;2023-06-01T09:46:47;6.15;;;1.75;;
73084;SDS011;62974;49.460;10.892;2023-06-01T09:49:18;5.60;;;1.30;;
73084;SDS011;62974;49.460;10.892;2023-06-01T09:51:47;2.58;;;1.63;;
73084;SDS011;62974;49.460;10.892;2023-06-01T09:54:22;2.72;;;1.55;;
73084;SDS011;62974;49.460;10.892;2023-06-01T09:56:53;3.47;;;1.42;;
73084;SDS011;62974;49.460;10.892;2023-06-01T09:59:44;4.22;;;1.80;;
73084;SDS011;62974;49.460;10.892;2023-06-01T10:02:13;3.15;;;1.50;;
73084;SDS011;62974;49.460;10.892;2023-06-01T10:04:44;3.13;;;1.40;;
73084;SDS011;62974;49.460;10.892;2023-06-01T10:07:15;2.17;;;1.50;;
73084;SDS011;62974;49.460;10.892;2023-06-01T10:09:46;3.03;;;1.38;;
73084;SDS011;62974;49.460;10.892;2023-06-01T10:12:17;2.63;;;1.23;;
73084;SDS011;62974;49.460;10.892;2023-06-01T10:14:45;3.78;;;1.45;;
73084;SDS011;62974;49.460;10.892;2023-06-01T10:17:13;2.90;;;1.40;;
73084;SDS011;62974;49.460;10.892;2023-06-01T10:19:42;2.72;;;1.50;;
73084;SDS011;62974;49.460;10.892;2023-06-01T10:22:10;5.40;;;2.03;;
73084;SDS011;62974;49.460;10.892;2023-06-01T10:24:39;5.65;;;1.50;;
73084;SDS011;62974;49.460;10.892;2023-06-01T10:27:10;3.63;;;1.40;;
73084;SDS011;62974;49.460;10.892;2023-06-01T10:29:43;4.32;;;1.50;;
73084;SDS011;62974;49.460;10.892;2023-06-01T10:38:29;3.85;;;1.63;;
73084;SDS011;62974;49.460;10.892;2023-06-01T10:43:57;2.60;;;1.40;;
73084;SDS011;62974;49.460;10.892;2023-06-01T10:46:34;2.40;;;1.63;;
73084;SDS011;62974;49.460;10.892;2023-06-01T10:49:12;3.75;;;1.50;;
73084;SDS011;62974;49.460;10.892;2023-06-01T10:51:40;2.50;;;1.42;;
73084;SDS011;62974;49.460;10.892;2023-06-01T10:54:24;4.80;;;1.65;;
73084;SDS011;62974;49.460;10.892;2023-06-01T11:00:12;2.47;;;1.40;;
73084;SDS011;62974;49.460;10.892;2023-06-01T11:02:45;3.28;;;1.25;;
73084;SDS011;62974;49.460;10.892;2023-06-01T11:05:34;3.45;;;1.75;;
73084;SDS011;62974;49.460;10.892;2023-06-01T11:08:06;3.72;;;1.60;;
73084;SDS011;62974;49.460;10.892;2023-06-01T11:10:54;4.05;;;1.25;;
73084;SDS011;62974;49.460;10.892;2023-06-01T11:13:24;3.08;;;1.42;;
73084;SDS011;62974;49.460;10.892;2023-06-01T11:18:59;3.72;;;1.40;;
73084;SDS011;62974;49.460;10.892;2023-06-01T11:21:30;2.90;;;1.20;;
73084;SDS011;62974;49.460;10.892;2023-06-01T11:24:05;2.95;;;1.40;;
73084;SDS011;62974;49.460;10.892;2023-06-01T11:26:35;2.53;;;1.50;;
73084;SDS011;62974;49.460;10.892;2023-06-01T11:29:06;3.03;;;1.55;;
73084;SDS011;62974;49.460;10.892;2023-06-01T11:31:37;3.65;;;1.50;;
73084;SDS011;62974;49.460;10.892;2023-06-01T11:34:07;3.83;;;1.70;;
73084;SDS011;62974;49.460;10.892;2023-06-01T11:36:38;2.67;;;1.80;;
73084;SDS011;62974;49.460;10.892;2023-06-01T11:39:15;3.40;;;1.77;;
73084;SDS011;62974;49.460;10.892;2023-06-01T11:41:48;2.90;;;1.40;;
73084;SDS011;62974;49.460;10.892;2023-06-01T11:44:17;3.05;;;1.52;;
73084;SDS011;62974;49.460;10.892;2023-06-01T11:46:51;2.78;;;1.30;;
73084;SDS011;62974;49.460;10.892;2023-06-01T11:49:21;3.22;;;1.20;;
73084;SDS011;62974;49.460;10.892;2023-06-01T11:51:50;4.28;;;1.35;;
73084;SDS011;62974;49.460;10.892;2023-06-01T11:54:23;3.25;;;1.58;;
73084;SDS011;62974;49.460;10.892;2023-06-01T11:56:52;3.20;;;1.50;;
73084;SDS011;62974;49.460;10.892;2023-06-01T11:59:24;4.03;;;1.35;;
73084;SDS011;62974;49.460;10.892;2023-06-01T12:01:51;2.60;;;1.58;;
73084;SDS011;62974;49.460;10.892;2023-06-01T12:04:20;3.55;;;1.50;;
73084;SDS011;62974;49.460;10.892;2023-06-01T12:06:51;5.00;;;1.30;;
73084;SDS011;62974;49.460;10.892;2023-06-01T12:09:19;2.88;;;1.58;;
73084;SDS011;62974;49.460;10.892;2023-06-01T12:11:47;2.22;;;1.20;;
73084;SDS011;62974;49.460;10.892;2023-06-01T12:14:15;3.45;;;1.45;;
73084;SDS011;62974;49.460;10.892;2023-06-01T12:16:50;3.20;;;1.50;;
73084;SDS011;62974;49.460;10.892;2023-06-01T12:19:19;2.60;;;1.20;;
73084;SDS011;62974;49.460;10.892;2023-06-01T12:21:48;2.65;;;1.25;;
73084;SDS011;62974;49.460;10.892;2023-06-01T12:24:18;1.80;;;1.27;;
73084;SDS011;62974;49.460;10.892;2023-06-01T12:26:53;2.20;;;1.40;;
73084;SDS011;62974;49.460;10.892;2023-06-01T12:29:33;3.42;;;1.42;;
73084;SDS011;62974;49.460;10.892;2023-06-01T12:32:02;2.50;;;1.45;;
73084;SDS011;62974;49.460;10.892;2023-06-01T12:36:57;2.90;;;1.40;;
73084;SDS011;62974;49.460;10.892;2023-06-01T12:39:32;4.32;;;1.42;;
73084;SDS011;62974;49.460;10.892;2023-06-01T12:42:03;3.58;;;1.77;;
73084;SDS011;62974;49.460;10.892;2023-06-01T12:44:31;3.35;;;1.40;;
73084;SDS011;62974;49.460;10.892;2023-06-01T12:47:00;3.45;;;1.40;;
73084;SDS011;62974;49.460;10.892;2023-06-01T12:49:30;3.53;;;1.50;;
73084;SDS011;62974;49.460;10.892;2023-06-01T12:51:58;3.05;;;1.27;;
73084;SDS011;62974;49.460;10.892;2023-06-01T12:54:26;3.53;;;1.60;;
73084;SDS011;62974;49.460;10.892;2023-06-01T12:56:54;3.00;;;1.50;;
73084;SDS011;62974;49.460;10.892;2023-06-01T12:59:22;3.58;;;1.65;;
73084;SDS011;62974;49.460;10.892;2023-06-01T13:01:50;4.53;;;1.40;;
73084;SDS011;62974;49.460;10.892;2023-06-01T13:04:17;3.80;;;1.48;;
73084;SDS011;62974;49.460;10.892;2023-06-01T13:06:45;2.50;;;1.45;;
73084;SDS011;62974;49.460;10.892;2023-06-01T13:09:12;4.30;;;1.33;;
73084;SDS011;62974;49.460;10.892;2023-06-01T13:11:41;2.95;;;1.45;;
73084;SDS011;62974;49.460;10.892;2023-06-01T13:14:10;2.70;;;1.30;;
73084;SDS011;62974;49.460;10.892;2023-06-01T13:16:38;2.65;;;1.35;;
73084;SDS011;62974;49.460;10.892;2023-06-01T13:19:05;3.42;;;2.00;;
73084;SDS011;62974;49.460;10.892;2023-06-01T13:21:33;3.05;;;1.77;;
73084;SDS011;62974;49.460;10.892;2023-06-01T13:24:00;3.08;;;1.60;;
73084;SDS011;62974;49.460;10.892;2023-06-01T13:26:29;2.38;;;1.45;;
73084;SDS011;62974;49.460;10.892;2023-06-01T13:28:56;3.10;;;1.70;;
73084;SDS011;62974;49.460;10.892;2023-06-01T13:31:25;4.25;;;1.58;;
73084;SDS011;62974;49.460;10.892;2023-06-01T13:33:53;2.55;;;1.58;;
73084;SDS011;62974;49.460;10.892;2023-06-01T13:36:21;3.08;;;1.60;;
73084;SDS011;62974;49.460;10.892;2023-06-01T13:38:49;3.00;;;1.60;;
73084;SDS011;62974;49.460;10.892;2023-06-01T13:41:16;4.25;;;1.70;;
73084;SDS011;62974;49.460;10.892;2023-06-01T13:43:44;5.50;;;1.90;;
73084;SDS011;62974;49.460;10.892;2023-06-01T13:46:12;2.88;;;1.42;;
73084;SDS011;62974;49.460;10.892;2023-06-01T13:48:41;4.78;;;1.50;;
73084;SDS011;62974;49.460;10.892;2023-06-01T13:51:08;2.50;;;1.13;;
73084;SDS011;62974;49.460;10.892;2023-06-01T13:53:36;3.35;;;1.70;;
73084;SDS011;62974;49.460;10.892;2023-06-01T13:56:04;4.28;;;1.70;;
73084;SDS011;62974;49.460;10.892;2023-06-01T13:58:32;2.08;;;1.40;;
73084;SDS011;62974;49.460;10.892;2023-06-01T14:01:00;2.88;;;1.60;;
73084;SDS011;62974;49.460;10.892;2023-06-01T14:03:28;4.07;;;1.48;;
73084;SDS011;62974;49.460;10.892;2023-06-01T14:05:58;5.80;;;1.60;;
73084;SDS011;62974;49.460;10.892;2023-06-01T14:08:25;3.45;;;1.40;;
73084;SDS011;62974;49.460;10.892;2023-06-01T14:10:53;3.03;;;1.67;;
73084;SDS011;62974;49.460;10.892;2023-06-01T14:13:21;3.00;;;1.33;;
73084;SDS011;62974;49.460;10.892;2023-06-01T14:15:48;2.17;;;1.30;;
73084;SDS011;62974;49.460;10.892;2023-06-01T14:20:43;3.80;;;1.48;;
73084;SDS011;62974;49.460;10.892;2023-06-01T14:23:12;3.33;;;1.90;;
73084;SDS011;62974;49.460;10.892;2023-06-01T14:25:40;1.90;;;1.13;;
73084;SDS011;62974;49.460;10.892;2023-06-01T14:28:07;2.30;;;1.40;;
73084;SDS011;62974;49.460;10.892;2023-06-01T14:30:35;1.98;;;1.48;;
73084;SDS011;62974;49.460;10.892;2023-06-01T14:33:03;2.85;;;1.55;;
73084;SDS011;62974;49.460;10.892;2023-06-01T14:35:30;1.88;;;1.30;;
73084;SDS011;62974;49.460;10.892;2023-06-01T14:37:59;3.33;;;1.30;;
73084;SDS011;62974;49.460;10.892;2023-06-01T14:40:28;1.73;;;1.17;;
73084;SDS011;62974;49.460;10.892;2023-06-01T14:42:55;3.05;;;1.55;;
73084;SDS011;62974;49.460;10.892;2023-06-01T14:45:23;2.80;;;1.35;;
73084;SDS011;62974;49.460;10.892;2023-06-01T14:47:50;3.42;;;1.60;;
73084;SDS011;62974;49.460;10.892;2023-06-01T14:50:18;1.92;;;1.40;;
73084;SDS011;62974;49.460;10.892;2023-06-01T14:52:46;4.47;;;1.50;;
73084;SDS011;62974;49.460;10.892;2023-06-01T14:55:13;2.58;;;1.50;;
73084;SDS011;62974;49.460;10.892;2023-06-01T14:57:44;3.67;;;1.30;;
73084;SDS011;62974;49.460;10.892;2023-06-01T15:00:12;2.80;;;1.30;;
73084;SDS011;62974;49.460;10.892;2023-06-01T15:02:40;2.20;;;1.40;;
73084;SDS011;62974;49.460;10.892;2023-06-01T15:05:08;1.70;;;1.10;;
73084;SDS011;62974;49.460;10.892;2023-06-01T15:10:03;2.58;;;1.45;;
73084;SDS011;62974;49.460;10.892;2023-06-01T15:12:31;2.58;;;1.42;;
73084;SDS011;62974;49.460;10.892;2023-06-01T15:15:00;5.22;;;1.35;;
73084;SDS011;62974;49.460;10.892;2023-06-01T15:17:28;2.47;;;1.40;;
73084;SDS011;62974;49.460;10.892;2023-06-01T15:22:23;2.22;;;1.13;;
73084;SDS011;62974;49.460;10.892;2023-06-01T15:24:51;2.45;;;1.45;;
73084;SDS011;62974;49.460;10.892;2023-06-01T15:27:18;2.63;;;1.20;;
73084;SDS011;62974;49.460;10.892;2023-06-01T15:29:46;2.10;;;1.30;;